CheckWX is a tool to help pilots better visualize weather data.  It is not intended as a substitute for an official pre-flight weather briefing.

15:02:54 UTC

NVSC TAF
Sola Airport
Sola, Vanuatu
TAF NVSC 232220Z 2312/2412 VRB02KT 9999 BKN020 INTER 2312/2318 8000 SHRA BKN018 OVC040

Mar-23@
12:00 UTC

Mar-23 @ 12:00 UTC

Mar-24@
12:00 UTC

Mar-24 @ 12:00 UTC

TAF NVSC 232220Z 2312/2412 VRB02KT 9999 BKN020
Wind
  • Variable at 2 KTS
Cloud Levels
  • Broken at 2,000' AGL

Mar-23@
12:00 UTC

Mar-23 @ 12:00 UTC

Mar-23@
18:00 UTC

Mar-23 @ 18:00 UTC

INTER 2312/2318 8000 SHRA BKN018 OVC040

Temporary

Temporary Changes expected for less than half the time period

Conditions
Rain
Cloud Levels
  • Broken at 1,800' AGL
  • Overcast at 4,000' AGL